To NAV CANADA Home Page Login to a new session Search on AWWS site Feedback and Comments Disclaimer Vers la page française équivalente Tips FAQ What's new on the site To the Forecasts and Observations / NOTAM section To "File a Flight Plan" website Publications and other links Update of the User's profile FIC Telephone Numbers My Weather Data Folder Route Weather Data Regional Weather Data Local Weather Data To the Forecasts and Observations / NOTAM section
Request Generated 05/24/2016 at 19:29:08 UTC . Weather information available at that time is displayed.

METAR/TAF

PRINCE ALBERT (GLASS FIELD)/SK    

METAR CYPA 241900Z 07012KT 6SM -DZ OVC009 10/08 A2992 RMK SC8 SLP146=
METAR CYPA 241800Z 07012G17KT 10SM -DZ OVC009 09/07 A2991 RMK SC8
SLP141=
METAR CYPA 241700Z 08010G16KT 10SM -DZ OVC009 09/07 A2990 RMK SC8
SLP140=

TAF CYPA 241838Z 2419/2507 06012KT P6SM SCT008 OVC015 TEMPO 2419/2422
P6SM -SHRA BKN008
FM242200 08010KT P6SM SCT015 BKN025 TEMPO 2422/2424 BKN015 BKN025
FM250000 06010KT P6SM SCT030 TEMPO 2500/2507 BKN030
RMK NXT FCST BY 250100Z=
Your time UTC time
Weather data provided by Environment Canada and NAV CANADA